createdAt,value
2023-03-02T00:01:38.201Z,1.90
2023-03-02T00:04:09.181Z,1.80
2023-03-02T00:06:38.587Z,1.90
2023-03-02T00:09:07.158Z,1.70
2023-03-02T00:11:38.604Z,1.80
2023-03-02T00:14:06.897Z,1.80
2023-03-02T00:16:35.453Z,1.70
2023-03-02T00:19:03.840Z,1.60
2023-03-02T00:21:33.727Z,1.60
2023-03-02T00:24:01.740Z,1.50
2023-03-02T00:26:30.520Z,1.40
2023-03-02T00:28:58.721Z,1.40
2023-03-02T00:31:26.774Z,1.40
2023-03-02T00:33:56.182Z,1.30
2023-03-02T00:36:24.603Z,1.30
2023-03-02T00:38:54.446Z,1.30
2023-03-02T00:41:22.948Z,1.20
2023-03-02T00:43:51.895Z,1.20
2023-03-02T00:46:22.217Z,1.20
2023-03-02T00:48:51.225Z,1.20
2023-03-02T00:51:20.138Z,1.20
2023-03-02T00:53:48.486Z,1.10
2023-03-02T00:56:17.950Z,1.10
2023-03-02T00:58:49.692Z,0.90
2023-03-02T01:01:18.750Z,0.80
2023-03-02T01:03:50.798Z,0.80
2023-03-02T01:06:21.988Z,0.70
2023-03-02T01:08:50.507Z,0.80
2023-03-02T01:11:23.508Z,0.80
2023-03-02T01:13:52.704Z,0.90
2023-03-02T01:16:20.914Z,0.90
2023-03-02T01:18:49.272Z,0.90
2023-03-02T01:21:17.532Z,1.00
2023-03-02T01:23:45.618Z,1.10
2023-03-02T01:26:13.826Z,1.00
2023-03-02T01:28:43.225Z,0.80
2023-03-02T01:31:11.352Z,0.80
2023-03-02T01:33:39.458Z,0.80
2023-03-02T01:36:08.675Z,0.80
2023-03-02T01:38:36.927Z,1.00
2023-03-02T01:41:05.194Z,1.00
2023-03-02T01:43:33.220Z,1.00
2023-03-02T01:46:04.663Z,0.90
2023-03-02T01:48:50.011Z,0.80
2023-03-02T01:51:26.761Z,0.70
2023-03-02T01:54:01.606Z,0.70
2023-03-02T01:56:34.636Z,0.70
2023-03-02T01:59:08.687Z,0.70
2023-03-02T02:01:41.384Z,0.70
2023-03-02T02:04:10.646Z,0.70
2023-03-02T02:06:40.716Z,0.70
2023-03-02T02:09:12.825Z,0.60
2023-03-02T02:11:40.981Z,0.40
2023-03-02T02:14:09.248Z,0.30
2023-03-02T02:16:39.688Z,0.20
2023-03-02T02:19:16.121Z,0.10
2023-03-02T02:21:44.642Z,0.10
2023-03-02T02:24:19.745Z,0.00
2023-03-02T02:26:51.248Z,0.00
2023-03-02T02:29:25.677Z,0.00
2023-03-02T02:31:57.619Z,0.10
2023-03-02T02:34:31.841Z,0.20
2023-03-02T02:37:06.695Z,0.20
2023-03-02T02:39:39.702Z,0.20
2023-03-02T02:42:14.887Z,0.30
2023-03-02T02:44:42.954Z,0.30
2023-03-02T02:47:18.550Z,0.30
2023-03-02T02:52:49.055Z,0.30
2023-03-02T02:55:21.204Z,0.30
2023-03-02T02:57:54.448Z,0.30
2023-03-02T03:00:23.989Z,0.20
2023-03-02T03:03:02.165Z,0.10
2023-03-02T03:05:30.224Z,0.00
2023-03-02T03:08:09.124Z,0.00
2023-03-02T03:10:41.211Z,0.00
2023-03-02T03:13:13.184Z,0.00
2023-03-02T03:15:42.168Z,-0.10
2023-03-02T03:18:10.156Z,-0.20
2023-03-02T03:20:38.201Z,-0.30
2023-03-02T03:23:06.207Z,-0.30
2023-03-02T03:25:34.976Z,-0.30
2023-03-02T03:28:03.925Z,-0.30
2023-03-02T03:30:35.101Z,-0.30
2023-03-02T03:33:04.357Z,-0.30
2023-03-02T03:35:33.001Z,-0.40
2023-03-02T03:40:42.876Z,-0.40
2023-03-02T03:43:12.592Z,-0.50
2023-03-02T03:45:41.219Z,-0.50
2023-03-02T03:48:09.582Z,-0.60
2023-03-02T03:50:37.785Z,-0.60
2023-03-02T03:53:06.090Z,-0.70
2023-03-02T03:55:34.317Z,-0.70
2023-03-02T03:58:04.081Z,-0.70
2023-03-02T04:00:32.093Z,-0.80
2023-03-02T04:03:06.811Z,-0.80
2023-03-02T04:05:35.275Z,-0.80
2023-03-02T04:08:04.551Z,-0.80
2023-03-02T04:10:33.876Z,-0.80
2023-03-02T04:13:04.663Z,-0.70
2023-03-02T04:15:33.512Z,-0.60
2023-03-02T04:18:02.497Z,-0.60
2023-03-02T04:20:32.485Z,-0.70
2023-03-02T04:23:00.931Z,-0.70
2023-03-02T04:25:30.923Z,-0.80
2023-03-02T04:28:06.366Z,-0.70
2023-03-02T04:30:37.908Z,-0.80
2023-03-02T04:33:06.063Z,-0.80
2023-03-02T04:35:35.923Z,-0.90
2023-03-02T04:38:04.943Z,-0.80
2023-03-02T04:40:33.138Z,-0.80
2023-03-02T04:43:01.214Z,-0.80
2023-03-02T04:45:30.808Z,-0.70
2023-03-02T04:47:58.821Z,-0.70
2023-03-02T04:50:26.978Z,-0.50
2023-03-02T04:52:54.980Z,-0.40
2023-03-02T04:55:26.188Z,-0.40
2023-03-02T04:57:54.514Z,-0.30
2023-03-02T05:00:22.987Z,-0.20
2023-03-02T05:02:53.207Z,-0.20
2023-03-02T05:05:24.124Z,-0.20
2023-03-02T05:07:52.766Z,-0.20
2023-03-02T05:10:22.494Z,-0.10
2023-03-02T05:12:58.093Z,0.00
2023-03-02T05:15:28.598Z,-0.10
2023-03-02T05:17:58.433Z,-0.10
2023-03-02T05:20:30.188Z,-0.10
2023-03-02T05:23:00.150Z,-0.10
2023-03-02T05:25:31.688Z,-0.10
2023-03-02T05:28:00.064Z,-0.10
2023-03-02T05:30:28.287Z,-0.20
2023-03-02T05:32:58.231Z,0.00
2023-03-02T05:35:27.265Z,0.00
2023-03-02T05:37:55.325Z,0.00
2023-03-02T05:40:23.386Z,-0.10
2023-03-02T05:42:51.616Z,-0.10
2023-03-02T05:45:23.147Z,0.00
2023-03-02T05:47:51.247Z,0.00
2023-03-02T05:50:21.002Z,0.10
2023-03-02T05:52:50.120Z,0.20
2023-03-02T05:55:19.223Z,0.20
2023-03-02T05:57:49.193Z,0.20
2023-03-02T06:00:18.380Z,0.10
2023-03-02T06:02:48.921Z,0.10
2023-03-02T06:05:20.014Z,0.00
2023-03-02T06:08:14.943Z,0.00
2023-03-02T06:10:43.094Z,0.10
2023-03-02T06:13:11.421Z,0.20
2023-03-02T06:15:40.615Z,0.20
2023-03-02T06:18:08.729Z,0.10
2023-03-02T06:20:36.726Z,0.00
2023-03-02T06:23:04.888Z,0.00
2023-03-02T06:25:35.965Z,-0.10
2023-03-02T06:28:04.502Z,-0.20
2023-03-02T06:30:32.578Z,-0.20
2023-03-02T06:33:00.738Z,-0.20
2023-03-02T06:35:29.194Z,0.00
2023-03-02T06:37:57.260Z,0.10
2023-03-02T06:40:25.350Z,0.20
2023-03-02T06:42:54.706Z,0.40
2023-03-02T06:45:22.721Z,1.50
2023-03-02T06:47:50.766Z,2.30
2023-03-02T06:50:18.880Z,3.00
2023-03-02T06:52:46.813Z,3.60
2023-03-02T06:55:14.790Z,4.10
2023-03-02T06:57:42.761Z,4.30
2023-03-02T07:00:17.112Z,4.40
2023-03-02T07:02:45.836Z,3.50
2023-03-02T07:05:14.222Z,2.80
2023-03-02T07:07:42.857Z,2.60
2023-03-02T07:10:13.404Z,2.40
2023-03-02T07:12:41.708Z,2.20
2023-03-02T07:15:12.041Z,2.30
2023-03-02T07:17:43.030Z,2.90
2023-03-02T07:20:13.007Z,4.60
2023-03-02T07:22:41.590Z,5.30
2023-03-02T07:25:10.991Z,5.80
2023-03-02T07:27:39.201Z,5.50
2023-03-02T07:30:08.660Z,6.10
2023-03-02T07:32:36.790Z,5.80
2023-03-02T07:35:06.851Z,6.10
2023-03-02T07:37:35.280Z,6.80
2023-03-02T07:40:03.850Z,7.40
2023-03-02T07:42:32.204Z,6.70
2023-03-02T07:45:04.339Z,7.60
2023-03-02T07:47:32.375Z,8.40
2023-03-02T07:50:00.409Z,9.60
2023-03-02T07:52:31.910Z,9.30
2023-03-02T07:55:00.121Z,8.90
2023-03-02T07:57:28.113Z,8.80
2023-03-02T07:59:56.357Z,8.80
2023-03-02T08:02:25.655Z,8.60
2023-03-02T08:04:53.887Z,8.60
2023-03-02T08:07:22.021Z,7.90
2023-03-02T08:09:51.594Z,8.20
2023-03-02T08:12:19.685Z,8.70
2023-03-02T08:14:48.785Z,9.60
2023-03-02T08:17:16.812Z,9.00
2023-03-02T08:19:45.268Z,8.00
2023-03-02T08:22:14.038Z,7.10
2023-03-02T08:24:42.922Z,7.10
2023-03-02T08:27:14.294Z,7.10
2023-03-02T08:29:42.981Z,8.00
2023-03-02T08:32:11.202Z,8.50
2023-03-02T08:34:39.662Z,7.70
2023-03-02T08:37:07.752Z,7.80
2023-03-02T08:39:36.093Z,8.00
2023-03-02T08:42:04.253Z,8.50
2023-03-02T08:44:33.814Z,8.80
2023-03-02T08:47:04.671Z,8.10
2023-03-02T08:49:32.644Z,8.60
2023-03-02T08:52:00.748Z,9.60
2023-03-02T08:54:28.912Z,10.10
2023-03-02T08:56:56.991Z,10.30
2023-03-02T08:59:25.268Z,10.30
2023-03-02T09:01:54.643Z,10.30
2023-03-02T09:04:23.827Z,9.60
2023-03-02T09:06:52.034Z,9.00
2023-03-02T09:09:21.486Z,8.60
2023-03-02T09:11:49.438Z,7.70
2023-03-02T09:14:21.069Z,7.30
2023-03-02T09:16:49.286Z,7.60
2023-03-02T09:19:19.056Z,7.50
2023-03-02T09:21:47.633Z,8.70
2023-03-02T09:24:15.608Z,8.40
2023-03-02T09:26:43.640Z,7.90
2023-03-02T09:29:11.781Z,9.10
2023-03-02T09:31:39.773Z,10.00
2023-03-02T09:34:08.556Z,9.30
2023-03-02T09:36:38.338Z,8.50
2023-03-02T09:39:12.448Z,8.80
2023-03-02T09:42:09.832Z,9.40
2023-03-02T09:44:55.633Z,9.70
2023-03-02T09:47:35.427Z,10.10
2023-03-02T09:50:17.566Z,10.50
2023-03-02T09:52:58.016Z,10.40
2023-03-02T09:55:30.056Z,10.10
2023-03-02T09:57:59.744Z,9.70
2023-03-02T10:00:30.984Z,10.10
2023-03-02T10:03:14.743Z,10.80
2023-03-02T10:05:47.068Z,10.30
2023-03-02T10:08:20.608Z,10.40
2023-03-02T10:10:58.941Z,10.60
2023-03-02T10:13:31.887Z,10.50
2023-03-02T10:16:14.792Z,10.70
2023-03-02T10:18:47.836Z,11.00
2023-03-02T10:21:23.495Z,11.10
2023-03-02T10:23:57.701Z,11.20
2023-03-02T10:26:40.054Z,11.30
2023-03-02T10:29:37.149Z,11.90
2023-03-02T10:32:15.961Z,11.50
2023-03-02T10:34:44.100Z,11.60
2023-03-02T10:37:15.475Z,12.50
2023-03-02T10:39:44.900Z,12.70
2023-03-02T10:42:18.902Z,13.50
2023-03-02T10:44:49.798Z,13.70
2023-03-02T10:47:23.009Z,13.80
2023-03-02T10:49:51.843Z,13.30
2023-03-02T10:52:21.562Z,13.50
2023-03-02T10:54:52.764Z,13.10
2023-03-02T10:57:30.693Z,13.50
2023-03-02T11:00:03.964Z,14.80
2023-03-02T11:02:38.774Z,14.70
2023-03-02T11:05:23.596Z,14.60
2023-03-02T11:07:56.413Z,14.80
2023-03-02T11:10:29.151Z,15.60
2023-03-02T11:12:58.139Z,14.50
2023-03-02T11:15:28.953Z,13.60
2023-03-02T11:18:02.817Z,14.10
2023-03-02T11:20:34.053Z,13.60
2023-03-02T11:23:17.091Z,13.70
2023-03-02T11:25:52.790Z,14.00
2023-03-02T11:28:55.343Z,14.10
2023-03-02T11:31:32.551Z,14.20
2023-03-02T11:34:20.522Z,14.50
2023-03-02T11:36:58.979Z,14.20
2023-03-02T11:39:33.176Z,14.50
2023-03-02T11:42:02.621Z,15.00
2023-03-02T11:44:30.722Z,14.50
2023-03-02T11:47:02.363Z,14.30
2023-03-02T11:49:40.198Z,13.90
2023-03-02T11:52:18.513Z,14.40
2023-03-02T11:54:50.658Z,14.90
2023-03-02T11:57:24.489Z,14.90
2023-03-02T11:59:53.783Z,15.00
2023-03-02T12:02:22.038Z,14.50
2023-03-02T12:04:50.336Z,14.40
2023-03-02T12:07:23.317Z,13.90
2023-03-02T12:10:03.126Z,14.00
2023-03-02T12:12:44.060Z,13.70
2023-03-02T12:15:37.041Z,13.30
2023-03-02T12:18:16.618Z,13.50
2023-03-02T12:20:44.865Z,13.70
2023-03-02T12:23:24.467Z,13.60
2023-03-02T12:26:03.817Z,13.60
2023-03-02T12:28:35.438Z,13.40
2023-03-02T12:31:09.150Z,13.20
2023-03-02T12:33:44.415Z,13.30
2023-03-02T12:36:16.189Z,13.70
2023-03-02T12:38:48.035Z,13.80
2023-03-02T12:41:39.962Z,14.30
2023-03-02T12:44:23.719Z,14.30
2023-03-02T12:46:54.455Z,14.80
2023-03-02T12:49:43.174Z,14.70
2023-03-02T12:52:24.410Z,14.20
2023-03-02T12:55:01.524Z,14.40
2023-03-02T12:57:29.625Z,14.70
2023-03-02T13:00:01.014Z,15.30
2023-03-02T13:02:31.369Z,15.10
2023-03-02T13:05:01.580Z,15.30
2023-03-02T13:07:36.085Z,14.90
2023-03-02T13:10:09.379Z,15.20
2023-03-02T13:12:38.299Z,15.10
2023-03-02T13:15:18.006Z,14.40
2023-03-02T13:17:53.046Z,14.10
2023-03-02T13:20:22.750Z,14.00
2023-03-02T13:22:51.427Z,14.20
2023-03-02T13:25:27.328Z,14.20
2023-03-02T13:27:57.409Z,14.00
2023-03-02T13:30:30.364Z,13.80
2023-03-02T13:33:02.768Z,13.70
2023-03-02T13:35:32.696Z,13.90
2023-03-02T13:38:04.740Z,14.00
2023-03-02T13:40:42.110Z,13.70
2023-03-02T13:43:25.158Z,13.60
2023-03-02T13:45:55.724Z,13.20
2023-03-02T13:48:24.191Z,13.30
2023-03-02T13:50:55.057Z,13.20
2023-03-02T13:53:24.323Z,13.00
2023-03-02T13:55:54.260Z,12.90
2023-03-02T13:58:25.251Z,13.00
2023-03-02T14:00:55.152Z,12.90
2023-03-02T14:03:26.770Z,12.90
2023-03-02T14:05:55.399Z,12.60
2023-03-02T14:08:23.693Z,12.00
2023-03-02T14:10:54.319Z,11.80
2023-03-02T14:13:24.968Z,11.70
2023-03-02T14:15:55.045Z,11.70
2023-03-02T14:18:30.129Z,11.70
2023-03-02T14:20:58.900Z,11.70
2023-03-02T14:23:28.671Z,11.60
2023-03-02T14:25:57.840Z,11.60
2023-03-02T14:28:30.403Z,11.70
2023-03-02T14:31:00.180Z,11.70
2023-03-02T14:33:28.276Z,11.30
2023-03-02T14:35:59.339Z,11.20
2023-03-02T14:38:28.218Z,11.20
2023-03-02T14:40:56.487Z,11.20
2023-03-02T14:43:25.296Z,11.20
2023-03-02T14:45:53.397Z,11.10
2023-03-02T14:48:22.808Z,11.10
2023-03-02T14:50:52.453Z,11.10
2023-03-02T14:53:27.287Z,11.20
2023-03-02T14:55:55.393Z,11.20
2023-03-02T14:58:31.275Z,11.20
2023-03-02T15:00:59.341Z,11.30
2023-03-02T15:03:29.597Z,11.20
2023-03-02T15:06:02.120Z,11.10
2023-03-02T15:08:30.801Z,10.90
2023-03-02T15:10:59.012Z,10.80
2023-03-02T15:13:27.065Z,10.80
2023-03-02T15:15:55.507Z,10.80
2023-03-02T15:18:23.870Z,10.70
2023-03-02T15:20:53.403Z,10.70
2023-03-02T15:23:21.475Z,10.60
2023-03-02T15:25:49.529Z,10.50
2023-03-02T15:28:18.314Z,10.50
2023-03-02T15:30:47.611Z,10.40
2023-03-02T15:33:17.485Z,10.30
2023-03-02T15:35:45.895Z,10.20
2023-03-02T15:38:15.238Z,10.30
2023-03-02T15:40:43.261Z,10.30
2023-03-02T15:43:11.516Z,10.10
2023-03-02T15:45:39.529Z,10.10
2023-03-02T15:48:07.926Z,10.10
2023-03-02T15:50:35.970Z,10.00
2023-03-02T15:53:04.033Z,9.90
2023-03-02T15:55:33.743Z,9.90
2023-03-02T15:58:01.735Z,9.90
2023-03-02T16:00:29.920Z,9.80
2023-03-02T16:02:58.029Z,9.70
2023-03-02T16:05:26.545Z,9.70
2023-03-02T16:07:54.579Z,9.70
2023-03-02T16:10:24.877Z,9.70
2023-03-02T16:12:54.491Z,9.60
2023-03-02T16:15:22.754Z,9.50
2023-03-02T16:17:50.900Z,9.40
2023-03-02T16:20:19.229Z,9.40
2023-03-02T16:22:47.281Z,9.40
2023-03-02T16:25:15.672Z,9.40
2023-03-02T16:27:47.367Z,9.30
2023-03-02T16:30:17.541Z,9.20
2023-03-02T16:32:45.616Z,9.20
2023-03-02T16:35:13.648Z,9.10
2023-03-02T16:37:41.717Z,9.10
2023-03-02T16:40:11.557Z,9.10
2023-03-02T16:42:39.605Z,9.00
2023-03-02T16:45:09.238Z,8.90
2023-03-02T16:47:38.857Z,8.80
2023-03-02T16:50:08.377Z,8.70
2023-03-02T16:52:36.525Z,8.60
2023-03-02T16:55:04.928Z,8.50
2023-03-02T16:57:33.212Z,8.50
2023-03-02T17:00:01.302Z,8.40
2023-03-02T17:02:30.068Z,8.30
2023-03-02T17:04:59.504Z,8.20
2023-03-02T17:07:27.739Z,8.20
2023-03-02T17:09:55.756Z,8.10
2023-03-02T17:12:24.080Z,7.90
2023-03-02T17:14:52.290Z,7.70
2023-03-02T17:17:20.689Z,7.70
2023-03-02T17:19:48.931Z,7.60
2023-03-02T17:22:18.595Z,7.50
2023-03-02T17:24:46.587Z,7.40
2023-03-02T17:27:24.638Z,7.30
2023-03-02T17:29:53.726Z,7.20
2023-03-02T17:32:22.208Z,7.10
2023-03-02T17:34:50.628Z,7.00
2023-03-02T17:37:20.096Z,7.00
2023-03-02T17:39:50.210Z,7.00
2023-03-02T17:42:18.250Z,6.90
2023-03-02T17:44:46.252Z,6.80
2023-03-02T17:47:16.098Z,6.80
2023-03-02T17:49:45.204Z,6.80
2023-03-02T17:52:14.141Z,6.70
2023-03-02T17:54:44.731Z,6.60
2023-03-02T17:57:13.209Z,6.50
2023-03-02T17:59:41.240Z,6.40
2023-03-02T18:02:09.573Z,6.30
2023-03-02T18:04:37.593Z,6.30
2023-03-02T18:07:05.648Z,6.10
2023-03-02T18:09:33.775Z,5.90
2023-03-02T18:12:03.385Z,5.80
2023-03-02T18:14:31.578Z,5.80
2023-03-02T18:16:59.832Z,5.80
2023-03-02T18:19:28.058Z,5.70
2023-03-02T18:21:56.101Z,5.70
2023-03-02T18:24:24.480Z,5.80
2023-03-02T18:26:52.601Z,5.80
2023-03-02T18:29:22.588Z,5.70
2023-03-02T18:31:51.068Z,5.70
2023-03-02T18:34:19.933Z,5.60
2023-03-02T18:36:48.607Z,5.60
2023-03-02T18:39:16.680Z,5.70
2023-03-02T18:41:44.850Z,5.60
2023-03-02T18:44:12.818Z,5.50
2023-03-02T18:46:42.548Z,5.50
2023-03-02T18:49:10.805Z,5.50
2023-03-02T18:51:38.920Z,5.40
2023-03-02T18:54:08.443Z,5.30
2023-03-02T18:56:38.862Z,5.30
2023-03-02T18:59:07.180Z,5.20
2023-03-02T19:01:35.461Z,5.10
2023-03-02T19:04:05.310Z,5.10
2023-03-02T19:06:34.282Z,5.10
2023-03-02T19:09:02.550Z,5.10
2023-03-02T19:11:30.965Z,5.00
2023-03-02T19:13:59.054Z,5.10
2023-03-02T19:16:27.504Z,5.00
2023-03-02T19:18:55.707Z,5.10
2023-03-02T19:21:25.099Z,5.00
2023-03-02T19:23:53.123Z,4.90
2023-03-02T19:26:21.688Z,4.90
2023-03-02T19:28:50.348Z,4.80
2023-03-02T19:31:18.435Z,4.80
2023-03-02T19:33:46.676Z,4.70
2023-03-02T19:36:15.363Z,4.60
2023-03-02T19:38:44.984Z,4.50
2023-03-02T19:41:14.849Z,4.40
2023-03-02T19:43:45.315Z,4.30
2023-03-02T19:46:14.724Z,4.20
2023-03-02T19:48:43.193Z,4.20
2023-03-02T19:51:12.067Z,4.10
2023-03-02T19:53:41.378Z,4.10
2023-03-02T19:56:22.208Z,4.10
2023-03-02T19:58:53.813Z,4.00
2023-03-02T20:01:28.045Z,3.90
2023-03-02T20:03:57.552Z,3.90
2023-03-02T20:06:27.329Z,3.80
2023-03-02T20:08:55.456Z,3.80
2023-03-02T20:11:27.360Z,3.80
2023-03-02T20:13:57.528Z,3.70
2023-03-02T20:16:25.677Z,3.70
2023-03-02T20:18:54.467Z,3.70
2023-03-02T20:21:26.203Z,3.70
2023-03-02T20:23:54.801Z,3.70
2023-03-02T20:26:25.592Z,3.70
2023-03-02T20:28:55.628Z,3.60
2023-03-02T20:31:25.059Z,3.60
2023-03-02T20:33:55.611Z,3.60
2023-03-02T20:36:26.777Z,3.60
2023-03-02T20:38:58.360Z,3.50
2023-03-02T20:41:28.304Z,3.40
2023-03-02T20:43:56.328Z,3.40
2023-03-02T20:46:28.783Z,3.40
2023-03-02T20:48:57.246Z,3.40
2023-03-02T20:51:25.903Z,3.40
2023-03-02T20:53:54.479Z,3.40
2023-03-02T20:56:23.331Z,3.40
2023-03-02T20:58:53.108Z,3.40
2023-03-02T21:01:23.566Z,3.40
2023-03-02T21:03:52.822Z,3.30
2023-03-02T21:06:20.934Z,3.20
2023-03-02T21:08:49.121Z,3.10
2023-03-02T21:11:19.979Z,3.00
2023-03-02T21:13:50.080Z,2.90
2023-03-02T21:16:22.575Z,2.90
2023-03-02T21:18:51.132Z,2.80
2023-03-02T21:21:21.584Z,3.00
2023-03-02T21:23:53.373Z,2.90
2023-03-02T21:26:22.153Z,2.90
2023-03-02T21:28:50.376Z,2.90
2023-03-02T21:31:19.853Z,2.80
2023-03-02T21:33:49.749Z,2.70
2023-03-02T21:36:20.247Z,2.70
2023-03-02T21:38:48.548Z,2.60
2023-03-02T21:41:17.095Z,2.50
2023-03-02T21:43:45.302Z,2.50
2023-03-02T21:46:15.344Z,2.50
2023-03-02T21:48:44.991Z,2.50
2023-03-02T21:51:14.418Z,2.40
2023-03-02T21:53:42.509Z,2.40
2023-03-02T21:56:11.717Z,2.40
2023-03-02T21:58:39.798Z,2.40
2023-03-02T22:01:08.009Z,2.40
2023-03-02T22:03:36.207Z,2.30
2023-03-02T22:06:06.452Z,2.30
2023-03-02T22:08:35.469Z,2.20
2023-03-02T22:11:03.854Z,2.10
2023-03-02T22:13:33.455Z,2.20
2023-03-02T22:16:13.523Z,2.10
2023-03-02T22:18:42.640Z,2.00
2023-03-02T22:21:28.662Z,2.00
2023-03-02T22:24:04.218Z,2.00
2023-03-02T22:26:35.372Z,2.00
2023-03-02T22:29:13.717Z,1.90
2023-03-02T22:31:47.145Z,1.80
2023-03-02T22:34:20.033Z,1.80
2023-03-02T22:36:50.172Z,1.80
2023-03-02T22:39:22.650Z,1.70
2023-03-02T22:41:54.926Z,1.70
2023-03-02T22:44:24.118Z,1.80
2023-03-02T22:46:53.423Z,1.80
2023-03-02T22:49:21.488Z,1.70
2023-03-02T22:51:51.285Z,1.70
2023-03-02T22:54:25.573Z,1.60
2023-03-02T22:56:57.106Z,1.60
2023-03-02T22:59:26.938Z,1.50
2023-03-02T23:01:59.457Z,1.50
2023-03-02T23:04:31.570Z,1.40
2023-03-02T23:07:03.061Z,1.40
2023-03-02T23:09:34.500Z,1.40
2023-03-02T23:12:06.472Z,1.50
2023-03-02T23:14:43.120Z,1.50
2023-03-02T23:17:16.932Z,1.50
2023-03-02T23:19:45.169Z,1.50
2023-03-02T23:22:15.177Z,1.40
2023-03-02T23:24:43.636Z,1.40
2023-03-02T23:27:12.010Z,1.30
2023-03-02T23:29:40.682Z,1.30
2023-03-02T23:32:09.340Z,1.40
2023-03-02T23:34:37.643Z,1.40
2023-03-02T23:37:05.681Z,1.50
2023-03-02T23:39:35.108Z,1.50
2023-03-02T23:42:03.177Z,1.50
2023-03-02T23:44:31.410Z,1.50
2023-03-02T23:46:59.724Z,1.60
2023-03-02T23:49:28.438Z,1.60
2023-03-02T23:51:56.789Z,1.70
2023-03-02T23:54:25.294Z,1.70
2023-03-02T23:56:54.791Z,1.70
2023-03-02T23:59:23.503Z,1.70
